Time;durP1;ratioP1;P1;durP2;ratioP2;P2;SDS_P1;SDS_P2;PMS_P1;PMS_P2;Temp;Humidity;BMP_temperature;BMP_pressure;BME280_temperature;BME280_humidity;BME280_pressure;Samples;Min_cycle;Max_cycle;Signal;HPM_P1;HPM_P2
2023/07/10 00:00:39;;;;;;;4.63;2.97;;;;;;;28.88;41.11;99166.25;2081137;28;20397;-50
2023/07/10 00:01:41;;;;;;;3.60;2.92;;;;;;;28.85;41.04;99174.13;2079483;28;20577;-49
2023/07/10 00:02:42;;;;;;;4.30;3.42;;;;;;;28.83;41.35;99160.72;2079766;28;20776;-50
2023/07/10 00:03:44;;;;;;;3.40;3.00;;;;;;;28.84;41.05;99172.50;2073092;28;20045;-48
2023/07/10 00:04:45;;;;;;;2.97;2.30;;;;;;;28.83;40.99;99165.38;2074727;28;20073;-48
2023/07/10 00:05:47;;;;;;;5.25;3.25;;;;;;;28.84;41.00;99172.50;2078696;28;20370;-50
2023/07/10 00:06:47;;;;;;;3.88;3.10;;;;;;;28.87;41.05;99177.44;2079446;28;20837;-49
2023/07/10 00:07:49;;;;;;;4.95;3.22;;;;;;;28.86;41.01;99167.56;2080093;28;20056;-49
2023/07/10 00:08:50;;;;;;;3.65;2.95;;;;;;;28.84;41.38;99169.75;2080034;28;20092;-49
2023/07/10 00:09:52;;;;;;;3.70;2.80;;;;;;;28.82;40.99;99171.91;2078015;28;20044;-50
2023/07/10 00:10:54;;;;;;;5.55;3.15;;;;;;;28.84;40.88;99177.94;2079344;28;20049;-47
2023/07/10 00:11:56;;;;;;;3.30;3.00;;;;;;;28.81;41.58;99162.09;2080176;28;20639;-50
2023/07/10 00:12:57;;;;;;;3.05;2.60;;;;;;;28.82;40.97;99169.19;2079792;28;20045;-50
2023/07/10 00:13:59;;;;;;;4.03;3.13;;;;;;;28.81;41.06;99167.56;2080250;28;20049;-49
2023/07/10 00:14:59;;;;;;;6.47;3.05;;;;;;;28.79;41.14;99169.72;2079569;28;20088;-49
2023/07/10 00:16:01;;;;;;;5.35;3.38;;;;;;;28.78;40.72;99171.63;2079461;28;20053;-49
2023/07/10 00:17:02;;;;;;;4.40;3.53;;;;;;;28.78;41.30;99163.44;2080150;28;20090;-49
2023/07/10 00:18:11;;;;;;;3.22;2.53;;;;;;;28.79;40.34;99170.53;2078515;28;20102;-49
2023/07/10 00:19:13;;;;;;;4.80;3.67;;;;;;;28.81;41.22;99173.00;2079057;28;20076;-50
2023/07/10 00:20:21;;;;;;;3.85;3.03;;;;;;;28.79;40.95;99172.44;2081316;28;20053;-48
2023/07/10 00:21:22;;;;;;;4.45;3.33;;;;;;;28.77;41.08;99172.69;2079704;28;20049;-51
2023/07/10 00:22:23;;;;;;;4.05;2.97;;;;;;;28.77;41.36;99171.88;2077475;28;20115;-49
2023/07/10 00:23:24;;;;;;;5.70;3.25;;;;;;;28.78;40.92;99173.50;2077318;28;20098;-49
2023/07/10 00:24:26;;;;;;;3.67;2.67;;;;;;;28.76;41.22;99170.22;2078925;28;20115;-51
2023/07/10 00:25:27;;;;;;;3.72;3.08;;;;;;;28.78;41.09;99168.03;2079320;28;20312;-48
2023/07/10 00:26:30;;;;;;;4.75;2.75;;;;;;;28.76;41.13;99170.22;2072483;28;20052;-49
2023/07/10 00:27:31;;;;;;;4.68;3.03;;;;;;;28.77;40.78;99174.59;2079355;28;20055;-48
2023/07/10 00:28:33;;;;;;;4.60;3.05;;;;;;;28.77;41.28;99171.88;2072333;28;20457;-49
2023/07/10 00:29:34;;;;;;;4.40;3.05;;;;;;;28.76;40.86;99175.69;2073317;28;20189;-49
2023/07/10 00:30:35;;;;;;;4.32;3.20;;;;;;;28.76;41.40;99176.50;2076342;28;20048;-48
2023/07/10 00:31:36;;;;;;;6.15;3.03;;;;;;;28.74;40.48;99179.47;2081179;28;20045;-51
2023/07/10 00:32:37;;;;;;;3.90;2.80;;;;;;;28.71;40.80;99180.00;2079492;28;20130;-49
2023/07/10 00:33:38;;;;;;;4.13;2.58;;;;;;;28.70;40.82;99180.28;2079314;28;20076;-49
2023/07/10 00:34:39;;;;;;;4.25;2.88;;;;;;;28.71;41.30;99174.53;2079238;28;20380;-49
2023/07/10 00:35:42;;;;;;;3.55;2.78;;;;;;;28.73;40.61;99171.56;2076385;28;20052;-50
2023/07/10 00:36:45;;;;;;;3.90;2.83;;;;;;;28.75;40.76;99174.84;2079388;28;20513;-50
2023/07/10 00:38:01;;;;;;;4.50;3.30;;;;;;;28.72;40.76;99170.75;2079178;28;20053;-49
2023/07/10 00:39:17;;;;;;;5.22;3.42;;;;;;;28.68;41.39;99180.50;2077717;28;20289;-49
2023/07/10 00:40:22;;;;;;;4.53;3.20;;;;;;;28.64;41.17;99171.22;2078901;28;20483;-48
2023/07/10 00:41:26;;;;;;;6.32;3.38;;;;;;;28.65;40.94;99174.75;2077588;28;20056;-49
2023/07/10 00:42:29;;;;;;;4.38;2.90;;;;;;;28.66;41.08;99174.47;2079094;28;20045;-49
2023/07/10 00:43:35;;;;;;;3.88;3.28;;;;;;;28.67;40.93;99183.53;2077544;28;20593;-49
2023/07/10 00:44:41;;;;;;;3.60;2.78;;;;;;;28.66;40.69;99176.38;2079349;28;20049;-49
2023/07/10 00:45:42;;;;;;;5.95;3.13;;;;;;;28.69;40.62;99178.59;2077215;28;20143;-48
2023/07/10 00:46:49;;;;;;;3.38;3.08;;;;;;;28.67;40.94;99178.06;2073303;28;20438;-50
2023/07/10 00:48:02;;;;;;;8.45;2.85;;;;;;;28.66;40.93;99165.47;2077132;28;20049;-49
2023/07/10 00:49:10;;;;;;;4.35;2.85;;;;;;;28.64;40.57;99175.81;2064118;28;20610;-49
2023/07/10 00:50:19;;;;;;;3.60;3.03;;;;;;;28.61;40.63;99174.44;2069326;28;20156;-49
2023/07/10 00:51:24;;;;;;;4.13;2.50;;;;;;;28.61;40.81;99174.44;2070760;28;20059;-50
2023/07/10 00:52:28;;;;;;;3.50;3.20;;;;;;;28.62;40.59;99176.09;2071969;28;20072;-48
2023/07/10 00:53:33;;;;;;;4.43;2.95;;;;;;;28.63;40.65;99169.53;2072011;28;20473;-49
2023/07/10 00:54:36;;;;;;;3.63;3.03;;;;;;;28.62;40.54;99169.81;2073637;28;20063;-49
2023/07/10 00:55:39;;;;;;;3.75;2.58;;;;;;;28.59;41.10;99171.16;2070394;28;20081;-50
2023/07/10 00:56:45;;;;;;;2.75;2.40;;;;;;;28.59;40.70;99165.69;2068178;28;20045;-50
2023/07/10 00:57:51;;;;;;;3.60;2.95;;;;;;;28.59;40.13;99165.69;2078153;28;20048;-47
2023/07/10 00:58:52;;;;;;;6.50;2.72;;;;;;;28.57;40.54;99173.31;2077166;28;20113;-49
2023/07/10 00:59:54;;;;;;;3.58;2.95;;;;;;;28.55;40.51;99175.44;2080628;28;20104;-49
2023/07/10 01:01:07;;;;;;;3.38;2.35;;;;;;;28.55;40.79;99175.44;2079178;28;20086;-50
2023/07/10 01:02:23;;;;;;;4.00;3.03;;;;;;;28.56;40.53;99171.66;2079213;28;20045;-48
2023/07/10 01:03:24;;;;;;;4.65;3.25;;;;;;;28.54;40.55;99167.53;2077436;28;20076;-50
2023/07/10 01:04:25;;;;;;;3.70;2.90;;;;;;;28.54;40.45;99170.28;2079896;28;20056;-52
2023/07/10 01:05:31;;;;;;;6.00;3.22;;;;;;;28.58;40.42;99172.22;2078589;28;20072;-52
2023/07/10 01:06:33;;;;;;;2.90;2.60;;;;;;;28.58;40.31;99174.94;2079080;28;20136;-49
2023/07/10 01:07:39;;;;;;;4.30;3.50;;;;;;;28.62;40.25;99172.53;2080586;28;20045;-49
2023/07/10 01:08:43;;;;;;;4.60;2.97;;;;;;;28.56;40.18;99171.66;2074425;28;20392;-47
2023/07/10 01:09:51;;;;;;;5.88;3.53;;;;;;;28.55;40.50;99175.44;2076557;28;20045;-55
2023/07/10 01:10:52;;;;;;;4.22;3.53;;;;;;;28.53;40.52;99183.09;2079315;28;20094;-50
2023/07/10 01:11:54;;;;;;;5.25;3.03;;;;;;;28.51;40.49;99180.59;2078554;28;20061;-50
2023/07/10 01:12:56;;;;;;;4.93;3.30;;;;;;;28.52;40.45;99174.06;2078632;28;20049;-50
2023/07/10 01:13:59;;;;;;;5.30;3.83;;;;;;;28.53;40.74;99177.63;2079266;28;20400;-48
2023/07/10 01:15:01;;;;;;;5.85;3.50;;;;;;;28.50;40.88;99173.50;2074421;28;20189;-49
2023/07/10 01:16:02;;;;;;;4.40;3.08;;;;;;;28.52;40.56;99175.97;2079284;28;20552;-51
2023/07/10 01:17:04;;;;;;;4.35;3.05;;;;;;;28.49;40.28;99174.56;2079028;28;20457;-50
2023/07/10 01:18:10;;;;;;;4.82;3.88;;;;;;;28.51;40.72;99171.59;2077019;28;20542;-51
2023/07/10 01:19:16;;;;;;;4.10;3.20;;;;;;;28.50;40.59;99173.50;2078819;28;20534;-52
2023/07/10 01:20:35;;;;;;;3.33;2.58;;;;;;;28.51;40.26;99179.78;2081592;28;20131;-50
2023/07/10 01:21:38;;;;;;;4.88;3.00;;;;;;;28.49;40.41;99173.75;2076468;28;20049;-49
2023/07/10 01:22:40;;;;;;;6.00;2.85;;;;;;;28.49;40.48;99160.94;2077364;28;20674;-51
2023/07/10 01:23:40;;;;;;;2.65;2.45;;;;;;;28.48;40.16;99172.94;2079820;28;20469;-51
2023/07/10 01:24:43;;;;;;;3.30;2.83;;;;;;;28.49;40.02;99171.84;2080623;28;20056;-53
2023/07/10 01:25:48;;;;;;;4.03;2.85;;;;;;;28.48;40.65;99166.66;2080426;28;20045;-53
2023/07/10 01:26:51;;;;;;;5.15;2.38;;;;;;;28.46;40.38;99166.09;2070940;28;20087;-53
2023/07/10 01:27:51;;;;;;;5.32;2.55;;;;;;;28.47;40.38;99163.13;2067390;28;20049;-49
2023/07/10 01:28:55;;;;;;;3.35;2.83;;;;;;;28.49;40.25;99162.84;2078343;28;20368;-49
2023/07/10 01:30:01;;;;;;;3.88;2.70;;;;;;;28.48;40.34;99164.75;2081771;28;20143;-51
2023/07/10 01:31:06;;;;;;;4.20;3.00;;;;;;;28.47;40.70;99165.00;2078415;28;20049;-51
2023/07/10 01:32:09;;;;;;;3.97;2.55;;;;;;;28.45;40.61;99164.44;2079021;28;20102;-49
2023/07/10 01:33:16;;;;;;;2.95;2.58;;;;;;;28.50;40.05;99167.22;2080757;28;20053;-48
2023/07/10 01:34:19;;;;;;;3.95;3.08;;;;;;;28.49;40.23;99157.38;2076669;28;20298;-49
2023/07/10 01:35:22;;;;;;;3.40;2.20;;;;;;;28.47;39.88;99160.38;2077675;28;20056;-51
2023/07/10 01:36:25;;;;;;;4.78;3.03;;;;;;;28.46;39.66;99157.91;2080909;28;20051;-49
2023/07/10 01:37:28;;;;;;;3.95;3.08;;;;;;;28.48;39.94;99166.66;2077116;28;20040;-52
2023/07/10 01:38:31;;;;;;;4.13;3.05;;;;;;;28.46;40.11;99158.72;2079651;28;20746;-50
2023/07/10 01:39:39;;;;;;;4.60;2.53;;;;;;;28.45;39.71;99159.00;2074972;28;20399;-53
2023/07/10 01:40:44;;;;;;;5.22;2.85;;;;;;;28.41;40.26;99164.06;2077578;28;20568;-50
2023/07/10 01:41:46;;;;;;;4.03;2.97;;;;;;;28.41;41.06;99163.25;2078551;28;20187;-47
2023/07/10 01:42:47;;;;;;;4.20;2.88;;;;;;;28.41;39.94;99169.53;2080496;28;20497;-51
2023/07/10 01:43:48;;;;;;;3.90;2.80;;;;;;;28.44;40.24;99162.78;2074607;28;20049;-48
2023/07/10 01:44:51;;;;;;;3.38;2.97;;;;;;;28.43;40.44;99166.59;2078850;28;20077;-49
2023/07/10 01:45:53;;;;;;;5.25;2.92;;;;;;;28.40;40.07;99165.16;2069982;28;20056;-50
2023/07/10 01:46:55;;;;;;;3.38;2.55;;;;;;;28.43;39.73;99169.31;2082289;28;20450;-48
2023/07/10 01:47:57;;;;;;;3.92;2.85;;;;;;;28.42;40.42;99163.06;2078910;28;20107;-50
2023/07/10 01:49:00;;;;;;;4.57;2.92;;;;;;;28.41;40.80;99157.81;2078579;28;20106;-51
2023/07/10 01:50:02;;;;;;;6.15;3.17;;;;;;;28.42;40.04;99170.38;2079641;28;20106;-50
2023/07/10 01:51:02;;;;;;;4.65;2.88;;;;;;;28.39;40.31;99166.25;2079145;28;20492;-52
2023/07/10 01:52:06;;;;;;;3.30;2.72;;;;;;;28.41;39.90;99163.25;2075010;28;20053;-49
2023/07/10 01:53:11;;;;;;;4.15;2.83;;;;;;;28.39;39.77;99165.41;2080491;28;20671;-49
2023/07/10 01:54:15;;;;;;;3.50;3.15;;;;;;;28.39;39.63;99165.41;2079124;28;20048;-48
2023/07/10 01:55:19;;;;;;;4.25;2.97;;;;;;;28.37;40.09;99168.41;2078876;28;20053;-49
2023/07/10 01:56:22;;;;;;;4.45;3.20;;;;;;;28.38;39.92;99163.78;2079171;28;20045;-49
2023/07/10 01:57:24;;;;;;;5.70;2.78;;;;;;;28.39;40.41;99166.25;2075431;28;20187;-49
2023/07/10 01:58:25;;;;;;;5.07;2.58;;;;;;;28.36;39.50;99165.94;2078237;28;20110;-49
2023/07/10 01:59:27;;;;;;;2.65;2.25;;;;;;;28.35;39.86;99162.38;2078791;28;20558;-49
2023/07/10 02:00:27;;;;;;;4.35;2.72;;;;;;;28.35;40.67;99169.75;2081169;28;20137;-49
2023/07/10 02:01:29;;;;;;;3.67;2.80;;;;;;;28.36;39.83;99165.94;2079000;28;20057;-48
2023/07/10 02:02:30;;;;;;;3.03;2.17;;;;;;;28.33;40.03;99161.81;2080156;28;20055;-48
2023/07/10 02:03:31;;;;;;;3.58;2.95;;;;;;;28.33;39.64;99160.97;2073690;28;20098;-49
2023/07/10 02:04:33;;;;;;;5.05;4.40;;;;;;;28.33;40.55;99158.25;2078012;28;20672;-49
2023/07/10 02:05:33;;;;;;;3.55;2.83;;;;;;;28.35;40.08;99156.09;2080285;28;20465;-50
2023/07/10 02:06:37;;;;;;;4.95;3.00;;;;;;;28.42;41.19;99154.00;2081213;28;20040;-48
2023/07/10 02:07:38;;;;;;;3.75;3.35;;;;;;;28.41;40.49;99163.25;2082153;28;20248;-50
2023/07/10 02:08:41;;;;;;;7.55;3.45;;;;;;;28.41;41.43;99155.06;2083350;28;20056;-50
2023/07/10 02:09:42;;;;;;;5.68;3.60;;;;;;;28.39;41.67;99154.50;2078084;28;20241;-48
2023/07/10 02:10:44;;;;;;;4.45;3.33;;;;;;;28.40;40.92;99151.53;2080122;28;20045;-51
2023/07/10 02:11:44;;;;;;;3.70;3.08;;;;;;;28.38;40.61;99152.88;2081103;28;20135;-49
2023/07/10 02:12:46;;;;;;;7.20;3.63;;;;;;;28.32;40.69;99159.34;2080746;28;20563;-48
2023/07/10 02:13:47;;;;;;;6.75;3.65;;;;;;;28.27;41.05;99152.75;2081804;28;20263;-49
2023/07/10 02:14:48;;;;;;;3.40;3.10;;;;;;;28.39;40.56;99157.22;2082675;28;20445;-49
2023/07/10 02:15:50;;;;;;;6.93;3.13;;;;;;;28.35;40.79;99148.75;2080948;28;20045;-50
2023/07/10 02:16:52;;;;;;;3.50;2.97;;;;;;;28.34;40.90;99149.00;2072675;28;20284;-49
2023/07/10 02:17:53;;;;;;;4.45;3.25;;;;;;;28.31;40.94;99155.81;2077560;28;20079;-52
2023/07/10 02:18:55;;;;;;;3.97;2.83;;;;;;;28.27;40.66;99147.28;2079841;28;20060;-48
2023/07/10 02:19:56;;;;;;;5.32;3.33;;;;;;;28.22;40.87;99141.78;2080906;28;20085;-49
2023/07/10 02:20:57;;;;;;;6.72;3.70;;;;;;;28.22;41.03;99147.25;2081681;28;20049;-48
2023/07/10 02:21:58;;;;;;;3.75;3.17;;;;;;;28.26;41.35;99151.09;2080890;28;20713;-49
2023/07/10 02:23:00;;;;;;;5.88;3.47;;;;;;;28.33;40.83;99150.88;2077343;28;20049;-48
2023/07/10 02:24:02;;;;;;;4.57;2.75;;;;;;;28.27;40.74;99155.47;2079577;28;20056;-49
2023/07/10 02:25:04;;;;;;;4.97;3.00;;;;;;;28.31;40.90;99147.63;2081264;28;20057;-51
2023/07/10 02:26:05;;;;;;;5.60;3.00;;;;;;;28.33;40.93;99156.34;2082719;28;20277;-49
2023/07/10 02:27:07;;;;;;;4.63;3.40;;;;;;;28.36;41.36;99147.69;2080760;28;20568;-50
2023/07/10 02:28:08;;;;;;;4.07;3.55;;;;;;;28.40;40.74;99150.72;2082121;28;20048;-48
2023/07/10 02:29:10;;;;;;;5.07;3.50;;;;;;;28.40;42.32;99153.44;2075654;28;20572;-51
2023/07/10 02:30:11;;;;;;;8.60;4.03;;;;;;;28.40;42.56;99150.72;2080390;28;20519;-49
2023/07/10 02:31:12;;;;;;;7.85;3.40;;;;;;;28.41;42.65;99152.34;2081574;28;20049;-49
2023/07/10 02:32:13;;;;;;;6.53;3.92;;;;;;;28.41;43.52;99146.88;2081261;28;20608;-51
2023/07/10 02:33:15;;;;;;;4.82;3.60;;;;;;;28.47;43.11;99154.06;2082096;28;20095;-49
2023/07/10 02:34:16;;;;;;;6.80;3.65;;;;;;;28.46;42.69;99150.53;2081581;28;20103;-49
2023/07/10 02:35:17;;;;;;;9.80;3.70;;;;;;;28.42;43.08;99154.00;2077078;28;20060;-49
2023/07/10 02:36:19;;;;;;;5.30;3.50;;;;;;;28.46;43.32;99153.25;2079127;28;20106;-49
2023/07/10 02:37:21;;;;;;;4.28;3.15;;;;;;;28.47;42.80;99146.75;2079778;28;20056;-48
2023/07/10 02:38:21;;;;;;;5.45;3.10;;;;;;;28.50;43.14;99148.97;2080604;28;20106;-48
2023/07/10 02:39:25;;;;;;;4.60;3.38;;;;;;;28.52;42.94;99149.50;2079045;28;20229;-48
2023/07/10 02:40:25;;;;;;;3.33;2.90;;;;;;;28.50;43.36;99153.56;2077831;28;20144;-48
2023/07/10 02:41:27;;;;;;;5.57;3.20;;;;;;;28.51;43.65;99149.78;2078836;28;20513;-49
2023/07/10 02:42:28;;;;;;;4.80;3.53;;;;;;;28.53;43.72;99147.63;2072402;28;20099;-48
2023/07/10 02:43:29;;;;;;;6.88;3.72;;;;;;;28.50;43.68;99148.09;2080763;28;20052;-49
2023/07/10 02:44:30;;;;;;;6.30;3.50;;;;;;;28.51;43.64;99155.22;2081043;28;20082;-49
2023/07/10 02:45:32;;;;;;;7.10;4.25;;;;;;;28.52;43.82;99149.50;2080856;28;20926;-48
2023/07/10 02:46:33;;;;;;;4.75;3.47;;;;;;;28.52;43.68;99152.22;2080604;28;20147;-50
2023/07/10 02:47:34;;;;;;;7.68;3.58;;;;;;;28.50;43.96;99151.69;2079846;28;20049;-49
2023/07/10 02:48:35;;;;;;;7.03;4.47;;;;;;;28.53;43.71;99150.34;2077890;28;20091;-52
2023/07/10 02:49:37;;;;;;;4.30;3.28;;;;;;;28.56;43.91;99158.03;2077991;28;20162;-49
2023/07/10 02:50:37;;;;;;;5.57;3.25;;;;;;;28.56;43.70;99157.19;2079903;28;20122;-51
2023/07/10 02:51:39;;;;;;;5.10;3.28;;;;;;;28.55;43.87;99153.63;2079385;28;20519;-48
2023/07/10 02:52:40;;;;;;;5.72;3.90;;;;;;;28.55;44.08;99156.34;2078968;28;20568;-50
2023/07/10 02:53:42;;;;;;;9.18;4.40;;;;;;;28.57;43.92;99158.84;2081815;28;20045;-49
2023/07/10 02:54:44;;;;;;;4.30;3.58;;;;;;;28.57;43.99;99154.19;2076688;28;20045;-48
2023/07/10 02:55:46;;;;;;;5.90;3.47;;;;;;;28.56;44.27;99155.28;2080950;28;20053;-49
2023/07/10 02:56:47;;;;;;;6.13;3.75;;;;;;;28.56;44.15;99152.56;2081789;28;20334;-48
2023/07/10 02:57:48;;;;;;;7.80;4.78;;;;;;;28.58;44.40;99157.75;2080657;28;20797;-48
2023/07/10 02:58:49;;;;;;;7.75;3.50;;;;;;;28.57;44.34;99156.09;2076672;28;20468;-48
2023/07/10 02:59:51;;;;;;;5.00;3.33;;;;;;;28.59;44.36;99156.69;2065892;28;20053;-48
2023/07/10 03:00:56;;;;;;;4.43;3.50;;;;;;;28.59;44.21;99152.03;2071089;28;20465;-48
2023/07/10 03:01:59;;;;;;;10.23;3.92;;;;;;;28.60;44.50;99150.13;2078542;28;20040;-49
2023/07/10 03:03:00;;;;;;;5.10;3.90;;;;;;;28.60;44.10;99150.94;2077333;28;20056;-49
2023/07/10 03:04:02;;;;;;;4.20;3.30;;;;;;;28.63;44.28;99157.81;2079366;28;20597;-47
2023/07/10 03:05:03;;;;;;;6.55;4.35;;;;;;;28.59;44.33;99152.03;2079281;28;20434;-49
2023/07/10 03:06:05;;;;;;;5.50;3.78;;;;;;;28.61;44.32;99152.63;2080898;28;20068;-49
2023/07/10 03:07:06;;;;;;;5.53;3.67;;;;;;;28.64;44.51;99153.97;2076990;28;20083;-48
2023/07/10 03:08:08;;;;;;;3.65;3.20;;;;;;;28.64;44.11;99154.81;2079089;28;20049;-49
2023/07/10 03:09:08;;;;;;;3.70;2.95;;;;;;;28.66;43.42;99158.09;2079424;28;20167;-48
2023/07/10 03:10:12;;;;;;;4.65;3.10;;;;;;;28.63;43.31;99155.88;2081880;28;20045;-48
2023/07/10 03:11:13;;;;;;;5.10;3.22;;;;;;;28.61;43.33;99155.34;2080212;28;20135;-48
2023/07/10 03:12:15;;;;;;;4.82;3.03;;;;;;;28.60;42.64;99158.31;2078878;28;20126;-49
2023/07/10 03:13:16;;;;;;;4.70;3.22;;;;;;;28.58;43.18;99158.56;2077818;28;20144;-49
2023/07/10 03:14:17;;;;;;;4.65;2.78;;;;;;;28.50;43.30;99159.03;2081386;28;20053;-48
2023/07/10 03:15:18;;;;;;;5.45;3.10;;;;;;;28.54;42.64;99153.91;2080122;28;20286;-48
2023/07/10 03:16:20;;;;;;;3.63;2.97;;;;;;;28.56;42.48;99158.03;2080992;28;20175;-49
2023/07/10 03:17:20;;;;;;;3.28;2.88;;;;;;;28.52;42.59;99156.88;2081948;28;20057;-50
2023/07/10 03:18:22;;;;;;;3.75;3.05;;;;;;;28.53;42.06;99161.25;2082479;28;20053;-50
2023/07/10 03:19:23;;;;;;;4.72;3.53;;;;;;;28.54;41.96;99156.63;2076888;28;20153;-50
2023/07/10 03:20:25;;;;;;;4.55;2.97;;;;;;;28.51;41.88;99149.78;2075909;28;21579;-49
2023/07/10 03:21:26;;;;;;;5.78;3.45;;;;;;;28.44;41.92;99155.41;2079438;28;20415;-48
2023/07/10 03:22:27;;;;;;;5.32;2.95;;;;;;;28.44;41.85;99155.41;2081587;28;20048;-48
2023/07/10 03:23:28;;;;;;;3.50;2.92;;;;;;;28.41;41.83;99157.81;2080154;28;20057;-52
2023/07/10 03:24:30;;;;;;;6.43;3.10;;;;;;;28.43;41.90;99156.50;2079703;28;20057;-49
2023/07/10 03:25:33;;;;;;;5.55;2.85;;;;;;;28.43;41.64;99156.50;2076276;28;20057;-49
2023/07/10 03:26:35;;;;;;;4.97;2.72;;;;;;;28.38;41.93;99159.13;2081865;28;20057;-52
2023/07/10 03:27:36;;;;;;;3.97;3.35;;;;;;;28.38;41.60;99158.31;2079062;28;20123;-49
2023/07/10 03:28:38;;;;;;;3.00;2.70;;;;;;;28.37;41.37;99164.88;2081416;28;20095;-52
2023/07/10 03:29:39;;;;;;;4.55;3.55;;;;;;;28.36;41.94;99160.47;2080662;28;20568;-48
2023/07/10 03:30:40;;;;;;;4.63;2.90;;;;;;;28.38;41.42;99163.78;2080131;28;20045;-49
2023/07/10 03:31:42;;;;;;;3.30;2.70;;;;;;;28.39;41.18;99152.63;2078453;28;20526;-48
2023/07/10 03:32:44;;;;;;;6.38;3.00;;;;;;;28.38;41.38;99158.31;2081627;28;20052;-48
2023/07/10 03:33:45;;;;;;;4.07;3.28;;;;;;;28.35;41.63;99158.84;2080546;28;20045;-48
2023/07/10 03:34:49;;;;;;;5.97;3.00;;;;;;;28.33;41.21;99160.97;2081728;28;20049;-49
2023/07/10 03:35:58;;;;;;;3.33;2.70;;;;;;;28.29;41.32;99158.78;2077580;28;20055;-49
2023/07/10 03:36:59;;;;;;;5.18;3.67;;;;;;;28.31;41.73;99158.53;2079105;28;20049;-50
2023/07/10 03:38:00;;;;;;;4.72;3.58;;;;;;;28.28;42.06;99154.41;2076496;28;20507;-51
2023/07/10 03:39:02;;;;;;;5.28;3.42;;;;;;;28.24;41.55;99155.97;2080486;28;20052;-49
2023/07/10 03:40:03;;;;;;;4.32;3.10;;;;;;;28.28;41.92;99159.84;2080999;28;20052;-50
2023/07/10 03:41:06;;;;;;;4.18;2.85;;;;;;;28.31;41.32;99158.53;2082778;28;21657;-52
2023/07/10 03:42:07;;;;;;;6.75;3.88;;;;;;;28.26;41.57;99158.47;2074402;28;20057;-49
2023/07/10 03:43:08;;;;;;;3.35;2.63;;;;;;;28.31;41.80;99160.44;2081086;28;20049;-50
2023/07/10 03:44:10;;;;;;;4.63;3.63;;;;;;;28.30;41.08;99162.31;2071354;28;20041;-49
2023/07/10 03:45:12;;;;;;;4.15;2.80;;;;;;;28.24;41.58;99161.44;2075138;28;20053;-49
2023/07/10 03:46:12;;;;;;;3.50;2.55;;;;;;;28.25;41.03;99171.28;2080089;28;20092;-48
2023/07/10 03:47:14;;;;;;;4.03;3.15;;;;;;;28.25;41.16;99170.44;2081640;28;20259;-49
2023/07/10 03:48:15;;;;;;;4.43;2.95;;;;;;;28.31;40.94;99163.16;2080007;28;20057;-48
2023/07/10 03:49:18;;;;;;;5.13;2.97;;;;;;;28.31;41.69;99163.97;2075723;28;20103;-49
2023/07/10 03:50:19;;;;;;;4.18;2.92;;;;;;;28.34;41.28;99168.09;2078977;28;20383;-49
2023/07/10 03:51:21;;;;;;;6.38;3.72;;;;;;;28.34;42.69;99166.19;2072716;28;20291;-48
2023/07/10 03:52:22;;;;;;;4.35;3.47;;;;;;;28.33;43.48;99166.44;2081601;28;20571;-50
2023/07/10 03:53:24;;;;;;;8.13;4.30;;;;;;;28.35;43.69;99175.19;2081793;28;20098;-49
2023/07/10 03:54:24;;;;;;;7.85;4.18;;;;;;;28.34;44.15;99165.38;2080682;28;20676;-51
2023/07/10 03:55:26;;;;;;;5.07;3.88;;;;;;;28.36;42.83;99176.84;2079198;28;20041;-51
2023/07/10 03:56:28;;;;;;;6.78;4.47;;;;;;;28.38;44.46;99171.97;2080850;28;20072;-49
2023/07/10 03:57:30;;;;;;;6.15;3.90;;;;;;;28.37;44.78;99171.13;2075847;28;20091;-48
2023/07/10 03:58:32;;;;;;;5.57;3.72;;;;;;;28.39;44.51;99174.44;2082707;28;20244;-50
2023/07/10 03:59:34;;;;;;;5.38;3.70;;;;;;;28.38;44.24;99163.78;2080389;28;20367;-48
2023/07/10 04:00:35;;;;;;;7.28;3.60;;;;;;;28.39;44.26;99174.44;2074574;28;20389;-50
2023/07/10 04:01:37;;;;;;;6.93;4.15;;;;;;;28.40;44.35;99178.00;2078717;28;20392;-50
2023/07/10 04:02:38;;;;;;;4.68;3.45;;;;;;;28.41;44.56;99177.72;2073656;28;20052;-49
2023/07/10 04:03:40;;;;;;;6.40;3.50;;;;;;;28.41;44.86;99168.72;2076253;28;20057;-47
2023/07/10 04:04:41;;;;;;;5.25;3.67;;;;;;;28.41;44.30;99176.91;2080367;28;20048;-48
2023/07/10 04:05:48;;;;;;;6.38;3.58;;;;;;;28.40;44.58;99173.34;2079952;28;20059;-49
2023/07/10 04:06:48;;;;;;;5.50;3.90;;;;;;;28.42;44.48;99170.38;2081204;28;20052;-50
2023/07/10 04:07:50;;;;;;;7.03;3.72;;;;;;;28.42;44.56;99178.56;2078780;28;20045;-49
2023/07/10 04:08:51;;;;;;;5.97;3.50;;;;;;;28.42;44.97;99173.97;2077130;28;20344;-47
2023/07/10 04:09:53;;;;;;;5.95;3.78;;;;;;;28.43;44.71;99182.97;2077139;28;20460;-52
2023/07/10 04:10:55;;;;;;;4.32;3.30;;;;;;;28.46;44.72;99179.72;2077456;28;20037;-50
2023/07/10 04:11:58;;;;;;;8.98;3.28;;;;;;;28.46;44.60;99183.28;2073342;28;20052;-49
2023/07/10 04:12:59;;;;;;;4.45;3.95;;;;;;;28.46;44.80;99183.28;2079207;28;21060;-50
2023/07/10 04:14:00;;;;;;;7.18;4.28;;;;;;;28.48;44.95;99183.84;2075193;28;20064;-50
2023/07/10 04:15:01;;;;;;;6.20;3.60;;;;;;;28.50;44.32;99181.69;2078425;28;20053;-48
2023/07/10 04:16:06;;;;;;;4.30;3.55;;;;;;;28.51;44.39;99183.34;2073063;28;20061;-50
2023/07/10 04:17:06;;;;;;;5.45;3.58;;;;;;;28.55;44.22;99185.56;2080640;28;20705;-49
2023/07/10 04:18:08;;;;;;;5.28;3.67;;;;;;;28.53;44.51;99174.91;2081299;28;20046;-52
2023/07/10 04:19:09;;;;;;;5.57;3.05;;;;;;;28.56;44.52;99181.75;2079060;28;20098;-49
2023/07/10 04:20:11;;;;;;;6.10;3.80;;;;;;;28.53;44.89;99183.09;2081279;28;20526;-48
2023/07/10 04:21:14;;;;;;;5.70;3.08;;;;;;;28.53;44.30;99177.63;2080723;28;20440;-48
2023/07/10 04:22:16;;;;;;;5.90;3.45;;;;;;;28.52;45.05;99175.97;2075657;28;20511;-50
2023/07/10 04:23:18;;;;;;;4.13;2.92;;;;;;;28.53;44.29;99191.28;2079107;28;20052;-52
2023/07/10 04:24:20;;;;;;;6.28;3.20;;;;;;;28.54;45.17;99184.72;2080463;28;20053;-48
2023/07/10 04:25:20;;;;;;;4.30;3.03;;;;;;;28.58;45.19;99185.03;2079360;28;20140;-48
2023/07/10 04:26:25;;;;;;;5.32;2.95;;;;;;;28.61;44.92;99187.25;2080638;28;20048;-49
2023/07/10 04:27:27;;;;;;;3.75;3.10;;;;;;;28.60;44.93;99183.69;2080186;28;20451;-48
2023/07/10 04:28:28;;;;;;;4.13;3.05;;;;;;;28.61;44.69;99184.53;2077760;28;20059;-47
2023/07/10 04:29:29;;;;;;;6.07;2.80;;;;;;;28.64;44.42;99187.59;2078524;28;20057;-49
2023/07/10 04:30:33;;;;;;;3.88;3.45;;;;;;;28.59;44.60;99190.25;2080519;28;20565;-48
2023/07/10 04:31:34;;;;;;;3.85;2.90;;;;;;;28.59;44.05;99192.97;2077826;28;20136;-50
2023/07/10 04:32:35;;;;;;;4.57;3.20;;;;;;;28.53;43.61;99188.56;2079972;28;20048;-48
2023/07/10 04:33:36;;;;;;;4.75;3.58;;;;;;;28.49;43.79;99190.94;2078925;28;20143;-49
2023/07/10 04:34:38;;;;;;;3.00;2.70;;;;;;;28.48;43.39;99189.31;2069548;28;20056;-50
2023/07/10 04:35:39;;;;;;;4.30;3.17;;;;;;;28.47;43.25;99195.00;2078683;28;20129;-48
2023/07/10 04:36:42;;;;;;;3.70;2.97;;;;;;;28.43;43.83;99196.63;2081010;28;20045;-48
2023/07/10 04:37:43;;;;;;;3.47;2.75;;;;;;;28.41;43.23;99185.91;2079261;28;20053;-48
2023/07/10 04:38:44;;;;;;;2.38;2.17;;;;;;;28.44;42.85;99184.59;2077614;28;20132;-49
2023/07/10 04:39:45;;;;;;;4.07;2.90;;;;;;;28.48;42.98;99189.31;2077348;28;20076;-48
2023/07/10 04:40:52;;;;;;;4.07;2.25;;;;;;;28.50;43.11;99194.50;2075741;28;20617;-47
2023/07/10 04:41:53;;;;;;;5.57;2.90;;;;;;;28.54;42.98;99189.38;2075639;28;20422;-48
2023/07/10 04:42:56;;;;;;;6.60;3.13;;;;;;;28.52;43.60;99192.34;2081718;28;20123;-50
2023/07/10 04:43:57;;;;;;;6.97;4.30;;;;;;;28.46;44.97;99186.00;2080294;28;20556;-49
2023/07/10 04:44:58;;;;;;;6.05;4.60;;;;;;;28.46;45.71;99187.91;2077478;28;20074;-47
2023/07/10 04:46:00;;;;;;;6.55;4.05;;;;;;;28.48;44.22;99188.50;2080324;28;20053;-48
2023/07/10 04:47:02;;;;;;;7.10;3.72;;;;;;;28.52;44.68;99189.63;2076496;28;21141;-48
2023/07/10 04:48:03;;;;;;;5.07;3.20;;;;;;;28.55;44.07;99193.75;2078704;28;20080;-50
2023/07/10 04:49:04;;;;;;;5.10;2.70;;;;;;;28.58;43.77;99190.50;2081485;28;21216;-49
2023/07/10 04:50:06;;;;;;;3.90;3.40;;;;;;;28.60;44.05;99189.16;2079422;28;20092;-48
2023/07/10 04:51:09;;;;;;;2.80;2.42;;;;;;;28.62;43.82;99191.66;2072386;28;20548;-50
2023/07/10 04:52:10;;;;;;;3.70;3.10;;;;;;;28.63;44.32;99194.09;2078810;28;20053;-51
2023/07/10 04:53:11;;;;;;;6.65;3.50;;;;;;;28.59;44.91;99197.63;2072087;28;20053;-50
2023/07/10 04:54:12;;;;;;;4.38;3.83;;;;;;;28.57;44.51;99189.69;2076795;28;20503;-47